createdAt,value
2018-11-13T00:00:15.267Z,97.35
2018-11-13T00:01:18.747Z,97.51
2018-11-13T00:02:22.356Z,97.59
2018-11-13T00:03:25.890Z,97.28
2018-11-13T00:04:30.255Z,97.16
2018-11-13T00:05:32.960Z,97.63
2018-11-13T00:06:35.688Z,97.28
2018-11-13T00:07:39.097Z,97.57
2018-11-13T00:08:42.456Z,97.52
2018-11-13T00:09:45.176Z,97.41
2018-11-13T00:10:48.819Z,97.03
2018-11-13T00:11:51.537Z,97.58
2018-11-13T00:12:54.227Z,97.18
2018-11-13T00:13:57.526Z,97.03
2018-11-13T00:15:00.275Z,97.59
2018-11-13T00:16:02.996Z,97.41
2018-11-13T00:17:06.275Z,97.71
2018-11-13T00:18:08.946Z,98.50
2018-11-13T00:19:11.663Z,98.21
2018-11-13T00:21:30.570Z,98.60
2018-11-13T00:22:34.940Z,98.83
2018-11-13T00:23:37.957Z,98.61
2018-11-13T00:24:40.635Z,98.79
2018-11-13T00:25:43.544Z,97.91
2018-11-13T00:26:48.179Z,97.62
2018-11-13T00:27:50.871Z,97.66
2018-11-13T00:28:53.568Z,97.66
2018-11-13T00:29:56.573Z,97.11
2018-11-13T00:30:59.292Z,96.89
2018-11-13T00:32:03.643Z,96.77
2018-11-13T00:33:07.081Z,96.52
2018-11-13T00:34:09.784Z,96.84
2018-11-13T00:35:13.309Z,97.27
2018-11-13T00:36:16.762Z,97.00
2018-11-13T00:37:19.441Z,96.83
2018-11-13T00:38:22.143Z,96.85
2018-11-13T00:39:25.426Z,96.49
2018-11-13T00:40:28.118Z,96.67
2018-11-13T00:41:31.383Z,96.26
2018-11-13T00:42:34.348Z,96.05
2018-11-13T00:43:38.676Z,96.80
2018-11-13T00:44:41.405Z,96.73
2018-11-13T00:45:44.420Z,96.42
2018-11-13T00:46:49.444Z,96.36
2018-11-13T00:47:52.975Z,96.43
2018-11-13T00:48:57.593Z,96.15
2018-11-13T00:50:01.203Z,95.99
2018-11-13T00:51:05.104Z,95.95
2018-11-13T00:52:09.123Z,95.97
2018-11-13T00:53:11.848Z,95.65
2018-11-13T00:54:14.585Z,96.56
2018-11-13T00:55:18.536Z,95.36
2018-11-13T00:56:22.530Z,96.12
2018-11-13T00:57:25.848Z,96.17
2018-11-13T00:58:28.532Z,95.85
2018-11-13T00:59:32.633Z,95.83
2018-11-13T01:00:36.464Z,95.89
2018-11-13T01:01:39.431Z,95.82
2018-11-13T01:02:42.727Z,95.73
2018-11-13T01:03:45.414Z,95.61
2018-11-13T01:04:48.251Z,95.42
2018-11-13T01:05:50.990Z,95.35
2018-11-13T01:06:53.746Z,95.47
2018-11-13T01:07:56.792Z,95.74
2018-11-13T01:08:59.594Z,95.76
2018-11-13T01:10:02.304Z,96.01
2018-11-13T01:11:05.508Z,96.06
2018-11-13T01:12:09.288Z,95.63
2018-11-13T01:13:11.997Z,96.48
2018-11-13T01:14:15.828Z,96.43
2018-11-13T01:15:19.636Z,95.87
2018-11-13T01:16:23.277Z,95.79
2018-11-13T01:17:27.707Z,96.83
2018-11-13T01:18:30.369Z,96.52
2018-11-13T01:19:33.083Z,96.58
2018-11-13T01:20:36.207Z,97.18
2018-11-13T01:21:39.334Z,96.35
2018-11-13T01:22:42.427Z,96.64
2018-11-13T01:23:45.122Z,96.64
2018-11-13T01:24:47.881Z,97.24
2018-11-13T01:25:50.565Z,96.93
2018-11-13T01:26:53.251Z,96.67
2018-11-13T01:27:56.218Z,97.09
2018-11-13T01:28:58.917Z,96.85
2018-11-13T01:30:01.567Z,97.28
2018-11-13T01:31:05.136Z,97.54
2018-11-13T01:32:07.819Z,97.55
2018-11-13T01:33:10.507Z,97.19
2018-11-13T01:34:13.654Z,97.64
2018-11-13T01:35:17.530Z,97.76
2018-11-13T01:36:20.212Z,97.13
2018-11-13T01:37:23.280Z,97.58
2018-11-13T01:38:26.177Z,97.38
2018-11-13T01:39:29.044Z,97.28
2018-11-13T01:40:31.797Z,97.26
2018-11-13T01:41:34.544Z,97.21
2018-11-13T01:42:37.305Z,96.84
2018-11-13T01:43:40.468Z,97.03
2018-11-13T01:44:43.379Z,97.00
2018-11-13T01:45:46.587Z,96.98
2018-11-13T01:46:50.163Z,97.15
2018-11-13T01:47:53.873Z,96.83
2018-11-13T01:48:56.574Z,96.77
2018-11-13T01:49:59.539Z,96.87
2018-11-13T01:51:02.189Z,97.00
2018-11-13T01:52:04.860Z,96.85
2018-11-13T01:53:08.145Z,96.81
2018-11-13T01:54:11.336Z,96.96
2018-11-13T01:55:15.320Z,96.48
2018-11-13T01:56:21.559Z,96.57
2018-11-13T01:57:27.788Z,96.31
2018-11-13T01:58:30.831Z,96.77
2018-11-13T01:59:33.623Z,96.47
2018-11-13T02:00:36.297Z,96.48
2018-11-13T02:01:39.762Z,96.22
2018-11-13T02:02:43.383Z,96.21
2018-11-13T02:03:46.061Z,96.34
2018-11-13T02:04:48.774Z,95.95
2018-11-13T02:05:51.466Z,96.22
2018-11-13T02:06:54.331Z,96.20
2018-11-13T02:07:57.870Z,96.25
2018-11-13T02:09:01.059Z,96.47
2018-11-13T02:10:03.999Z,96.36
2018-11-13T02:11:08.345Z,96.36
2018-11-13T02:12:12.692Z,97.00
2018-11-13T02:13:15.368Z,96.79
2018-11-13T02:14:18.058Z,96.42
2018-11-13T02:15:21.579Z,96.86
2018-11-13T02:16:24.258Z,96.71
2018-11-13T02:17:28.779Z,96.59
2018-11-13T02:18:31.576Z,96.36
2018-11-13T02:19:34.240Z,96.70
2018-11-13T02:20:37.150Z,96.94
2018-11-13T02:21:40.646Z,96.31
2018-11-13T02:22:44.692Z,96.78
2018-11-13T02:23:48.210Z,96.67
2018-11-13T02:24:51.009Z,96.28
2018-11-13T02:25:54.410Z,95.97
2018-11-13T02:26:57.184Z,96.65
2018-11-13T02:28:00.349Z,96.43
2018-11-13T02:29:07.829Z,95.98
2018-11-13T02:30:10.966Z,96.54
2018-11-13T02:31:15.909Z,96.13
2018-11-13T02:32:19.068Z,95.92
2018-11-13T02:33:21.791Z,96.20
2018-11-13T02:34:24.809Z,96.37
2018-11-13T02:35:27.492Z,96.57
2018-11-13T02:36:30.190Z,96.51
2018-11-13T02:37:33.568Z,96.45
2018-11-13T02:38:36.225Z,96.25
2018-11-13T02:39:38.887Z,96.63
2018-11-13T02:40:42.077Z,96.50
2018-11-13T02:41:44.758Z,96.77
2018-11-13T02:42:48.050Z,97.33
2018-11-13T02:43:51.341Z,96.84
2018-11-13T02:44:54.048Z,96.91
2018-11-13T02:45:58.882Z,97.11
2018-11-13T02:47:02.851Z,96.81
2018-11-13T02:48:05.572Z,97.06
2018-11-13T02:49:08.332Z,97.12
2018-11-13T02:50:11.880Z,96.36
2018-11-13T02:51:14.600Z,96.96
2018-11-13T02:52:18.943Z,96.43
2018-11-13T02:53:21.953Z,96.57
2018-11-13T02:54:24.635Z,96.35
2018-11-13T02:55:27.299Z,96.33
2018-11-13T02:56:29.992Z,96.10
2018-11-13T02:57:32.644Z,96.78
2018-11-13T02:58:35.327Z,96.49
2018-11-13T02:59:38.348Z,96.52
2018-11-13T03:00:41.486Z,97.05
2018-11-13T03:01:44.173Z,97.09
2018-11-13T03:02:46.850Z,97.39
2018-11-13T03:03:49.525Z,97.28
2018-11-13T03:04:52.943Z,96.65
2018-11-13T03:05:56.149Z,96.30
2018-11-13T03:06:59.720Z,96.69
2018-11-13T03:08:02.485Z,95.37
2018-11-13T03:09:07.265Z,95.55
2018-11-13T03:10:10.590Z,95.75
2018-11-13T03:11:13.256Z,95.60
2018-11-13T03:12:16.255Z,95.76
2018-11-13T03:13:19.011Z,95.55
2018-11-13T03:14:21.684Z,95.65
2018-11-13T03:15:24.567Z,95.30
2018-11-13T03:16:27.423Z,95.28
2018-11-13T03:17:31.163Z,95.08
2018-11-13T03:18:35.084Z,95.05
2018-11-13T03:19:38.391Z,95.04
2018-11-13T03:20:41.077Z,94.23
2018-11-13T03:21:43.840Z,94.23
2018-11-13T03:22:46.831Z,94.33
2018-11-13T03:23:49.484Z,94.33
2018-11-13T03:24:53.075Z,94.43
2018-11-13T03:25:55.719Z,93.71
2018-11-13T03:26:58.536Z,93.99
2018-11-13T03:28:01.217Z,94.52
2018-11-13T03:29:04.906Z,94.42
2018-11-13T03:30:07.590Z,93.59
2018-11-13T03:31:10.636Z,93.88
2018-11-13T03:32:13.667Z,94.13
2018-11-13T03:33:16.831Z,94.67
2018-11-13T03:34:19.736Z,94.53
2018-11-13T03:35:23.722Z,94.58
2018-11-13T03:36:27.215Z,94.54
2018-11-13T03:37:29.927Z,94.55
2018-11-13T03:38:32.572Z,95.22
2018-11-13T03:39:35.875Z,94.83
2018-11-13T03:40:38.557Z,94.49
2018-11-13T03:41:43.391Z,94.60
2018-11-13T03:42:48.238Z,94.67
2018-11-13T03:43:50.928Z,95.19
2018-11-13T03:44:53.601Z,95.12
2018-11-13T03:45:56.291Z,94.72
2018-11-13T03:46:58.953Z,94.31
2018-11-13T03:48:01.681Z,94.68
2018-11-13T03:49:04.664Z,94.25
2018-11-13T03:50:07.360Z,94.41
2018-11-13T03:51:10.055Z,94.42
2018-11-13T03:52:12.739Z,94.14
2018-11-13T03:53:15.404Z,93.91
2018-11-13T03:54:19.576Z,94.62
2018-11-13T03:55:22.527Z,94.65
2018-11-13T03:56:25.210Z,94.40
2018-11-13T03:57:28.452Z,94.31
2018-11-13T03:58:31.125Z,94.71
2018-11-13T03:59:34.283Z,94.84
2018-11-13T04:00:37.605Z,95.18
2018-11-13T04:01:40.751Z,95.34
2018-11-13T04:02:43.434Z,94.78
2018-11-13T04:03:46.084Z,94.17
2018-11-13T04:04:48.782Z,94.25
2018-11-13T04:05:51.457Z,94.23
2018-11-13T04:06:54.149Z,94.74
2018-11-13T04:07:56.827Z,94.44
2018-11-13T04:08:59.596Z,94.37
2018-11-13T04:10:02.343Z,94.51
2018-11-13T04:11:05.020Z,94.90
2018-11-13T04:12:07.929Z,94.78
2018-11-13T04:13:11.119Z,94.86
2018-11-13T04:14:13.777Z,94.79
2018-11-13T04:15:17.687Z,94.92
2018-11-13T04:16:20.386Z,94.94
2018-11-13T04:17:23.040Z,94.35
2018-11-13T04:18:25.701Z,94.12
2018-11-13T04:19:28.849Z,94.69
2018-11-13T04:20:31.645Z,94.49
2018-11-13T04:21:34.386Z,94.47
2018-11-13T04:22:37.241Z,93.91
2018-11-13T04:23:40.488Z,94.08
2018-11-13T04:24:43.167Z,94.44
2018-11-13T04:25:47.309Z,94.35
2018-11-13T04:26:49.984Z,94.27
2018-11-13T04:27:52.649Z,94.13
2018-11-13T04:28:55.383Z,94.13
2018-11-13T04:29:58.070Z,94.40
2018-11-13T04:31:00.750Z,94.32
2018-11-13T04:32:04.345Z,94.13
2018-11-13T04:33:11.254Z,94.51
2018-11-13T04:34:14.980Z,93.96
2018-11-13T04:35:19.028Z,93.66
2018-11-13T04:36:21.720Z,92.91
2018-11-13T04:37:25.649Z,93.28
2018-11-13T04:38:28.719Z,93.57
2018-11-13T04:39:31.386Z,94.09
2018-11-13T04:40:34.725Z,93.51
2018-11-13T04:41:37.389Z,93.41
2018-11-13T04:42:40.073Z,94.02
2018-11-13T04:43:42.756Z,93.67
2018-11-13T04:44:46.467Z,93.58
2018-11-13T04:45:49.159Z,93.73
2018-11-13T04:46:51.824Z,93.60
2018-11-13T04:47:54.467Z,93.93
2018-11-13T04:48:57.120Z,93.65
2018-11-13T04:50:00.712Z,93.79
2018-11-13T04:51:03.850Z,93.82
2018-11-13T04:52:08.148Z,93.91
2018-11-13T04:53:11.313Z,93.98
2018-11-13T04:54:13.960Z,93.63
2018-11-13T04:55:16.929Z,94.14
2018-11-13T04:56:19.581Z,93.92
2018-11-13T04:57:22.717Z,93.93
2018-11-13T04:58:26.669Z,94.15
2018-11-13T04:59:29.355Z,94.11
2018-11-13T05:00:32.232Z,94.58
2018-11-13T05:01:35.911Z,94.16
2018-11-13T05:02:39.824Z,93.71
2018-11-13T05:03:43.522Z,94.04
2018-11-13T05:04:46.196Z,94.82
2018-11-13T05:05:50.671Z,94.00
2018-11-13T05:06:53.382Z,94.60
2018-11-13T05:07:56.994Z,94.62
2018-11-13T05:09:01.333Z,94.62
2018-11-13T05:10:05.346Z,94.20
2018-11-13T05:11:08.162Z,94.20
2018-11-13T05:12:10.834Z,94.34
2018-11-13T05:13:13.576Z,94.53
2018-11-13T05:14:17.202Z,94.26
2018-11-13T05:15:19.903Z,94.48
2018-11-13T05:16:23.047Z,94.10
2018-11-13T05:17:25.768Z,94.19
2018-11-13T05:18:28.459Z,94.39
2018-11-13T05:19:31.100Z,93.99
2018-11-13T05:20:34.682Z,93.94
2018-11-13T05:21:38.282Z,94.36
2018-11-13T05:22:41.404Z,94.49
2018-11-13T05:23:44.101Z,94.30
2018-11-13T05:24:47.869Z,93.98
2018-11-13T05:25:50.831Z,93.90
2018-11-13T05:26:53.840Z,94.22
2018-11-13T05:27:56.540Z,94.12
2018-11-13T05:28:59.225Z,94.13
2018-11-13T05:30:02.635Z,93.79
2018-11-13T05:31:05.276Z,94.37
2018-11-13T05:32:07.959Z,94.18
2018-11-13T05:33:10.642Z,93.95
2018-11-13T05:34:13.328Z,93.92
2018-11-13T05:35:18.544Z,93.78
2018-11-13T05:36:21.382Z,94.01
2018-11-13T05:37:24.662Z,94.10
2018-11-13T05:38:27.660Z,94.36
2018-11-13T05:39:30.351Z,94.51
2018-11-13T05:40:33.087Z,93.97
2018-11-13T05:41:36.313Z,94.18
2018-11-13T05:42:39.187Z,93.87
2018-11-13T05:43:41.926Z,93.52
2018-11-13T05:44:44.939Z,94.44
2018-11-13T05:45:47.671Z,93.51
2018-11-13T05:46:50.997Z,94.12
2018-11-13T05:47:55.064Z,93.75
2018-11-13T05:48:58.163Z,93.82
2018-11-13T05:50:01.505Z,93.06
2018-11-13T05:51:04.882Z,93.58
2018-11-13T05:52:08.366Z,93.71
2018-11-13T05:53:11.070Z,93.67
2018-11-13T05:54:14.288Z,93.82
2018-11-13T05:55:19.721Z,93.43
2018-11-13T05:56:22.540Z,92.95
2018-11-13T05:57:27.027Z,93.45
2018-11-13T05:58:30.674Z,93.16
2018-11-13T05:59:33.666Z,93.85
2018-11-13T06:00:36.388Z,93.16
2018-11-13T06:01:39.138Z,93.80
2018-11-13T06:02:41.970Z,93.32
2018-11-13T06:03:45.065Z,93.39
2018-11-13T06:04:48.157Z,93.96
2018-11-13T06:05:50.853Z,93.51
2018-11-13T06:06:54.465Z,93.51
2018-11-13T06:07:57.378Z,93.91
2018-11-13T06:09:00.039Z,93.74
2018-11-13T06:10:03.644Z,93.52
2018-11-13T06:11:06.756Z,93.72
2018-11-13T06:12:10.387Z,93.88
2018-11-13T06:13:13.042Z,93.80
2018-11-13T06:14:16.167Z,94.27
2018-11-13T06:15:18.831Z,94.26
2018-11-13T06:16:23.033Z,94.22
2018-11-13T06:17:26.750Z,93.98
2018-11-13T06:18:29.415Z,93.80
2018-11-13T06:19:32.732Z,93.82
2018-11-13T06:20:35.425Z,93.78
2018-11-13T06:21:39.131Z,93.92
2018-11-13T06:22:43.052Z,94.26
2018-11-13T06:23:45.731Z,93.93
2018-11-13T06:24:48.400Z,94.02
2018-11-13T06:25:52.434Z,94.19
2018-11-13T06:26:56.179Z,93.89
2018-11-13T06:27:59.142Z,94.02
2018-11-13T06:29:02.682Z,93.60
2018-11-13T06:30:05.455Z,94.08
2018-11-13T06:43:58.951Z,94.03
2018-11-13T06:45:01.818Z,93.52
2018-11-13T06:46:04.707Z,93.88
2018-11-13T06:47:07.642Z,94.37
2018-11-13T06:48:10.396Z,93.89
2018-11-13T06:49:15.513Z,94.12
2018-11-13T06:50:18.350Z,94.18
2018-11-13T06:51:21.056Z,94.02
2018-11-13T06:52:24.633Z,94.27
2018-11-13T06:53:29.177Z,94.24
2018-11-13T06:54:31.875Z,93.86
2018-11-13T06:55:37.855Z,93.92
2018-11-13T06:56:40.537Z,94.28
2018-11-13T06:57:43.242Z,94.32
2018-11-13T06:58:45.983Z,94.62
2018-11-13T06:59:48.756Z,94.29
2018-11-13T07:00:51.419Z,94.79
2018-11-13T07:01:54.637Z,94.38
2018-11-13T07:02:58.815Z,95.00
2018-11-13T07:04:01.486Z,94.43
2018-11-13T07:05:04.215Z,94.49
2018-11-13T07:06:13.587Z,93.93
2018-11-13T07:07:16.315Z,94.44
2018-11-13T07:08:24.698Z,94.68
2018-11-13T07:09:27.427Z,94.09
2018-11-13T07:10:30.923Z,94.35
2018-11-13T07:11:34.319Z,94.38
2018-11-13T07:12:36.976Z,94.23
2018-11-13T07:13:39.664Z,94.82
2018-11-13T07:14:46.477Z,94.31
2018-11-13T07:15:49.348Z,94.14
2018-11-13T07:16:52.097Z,94.10
2018-11-13T07:17:58.142Z,94.22
2018-11-13T07:19:00.831Z,94.52
2018-11-13T07:20:03.606Z,94.07
2018-11-13T07:21:06.733Z,94.28
2018-11-13T07:22:09.960Z,94.40
2018-11-13T07:23:12.761Z,94.45
2018-11-13T07:24:15.444Z,94.29
2018-11-13T07:25:21.505Z,94.64
2018-11-13T07:26:28.673Z,94.18
2018-11-13T07:27:34.462Z,94.39
2018-11-13T07:28:37.332Z,94.08
2018-11-13T07:29:40.833Z,94.40
2018-11-13T07:30:43.845Z,94.45
2018-11-13T07:31:47.667Z,94.60
2018-11-13T07:32:50.395Z,94.93
2018-11-13T07:33:54.813Z,94.31
2018-11-13T07:34:57.942Z,94.06
2018-11-13T07:36:00.844Z,94.57
2018-11-13T07:37:04.074Z,94.13
2018-11-13T07:38:06.798Z,94.21
2018-11-13T07:39:10.334Z,94.09
2018-11-13T07:40:15.088Z,94.11
2018-11-13T07:41:20.296Z,94.57
2018-11-13T07:42:24.653Z,94.31
2018-11-13T07:43:27.417Z,93.73
2018-11-13T07:44:30.213Z,93.97
2018-11-13T07:45:34.189Z,93.91
2018-11-13T07:46:39.126Z,93.94
2018-11-13T07:47:42.687Z,93.72
2018-11-13T07:48:45.565Z,94.42
2018-11-13T07:49:48.919Z,93.71
2018-11-13T07:50:51.627Z,94.17
2018-11-13T07:51:55.936Z,94.48
2018-11-13T07:52:59.060Z,94.44
2018-11-13T07:54:02.574Z,93.69
2018-11-13T07:55:06.328Z,94.19
2018-11-13T07:56:11.573Z,93.59
2018-11-13T07:57:14.542Z,94.06
2018-11-13T07:58:21.596Z,93.79
2018-11-13T07:59:24.680Z,93.75
2018-11-13T08:00:27.362Z,94.21
2018-11-13T08:01:30.292Z,94.01
2018-11-13T08:02:34.221Z,93.91
2018-11-13T08:03:39.084Z,93.62
2018-11-13T08:04:43.191Z,94.14
2018-11-13T08:05:47.236Z,94.20
2018-11-13T08:06:50.156Z,93.44
2018-11-13T08:07:53.679Z,94.16
2018-11-13T08:08:58.227Z,94.08
2018-11-13T08:10:03.507Z,94.37
2018-11-13T08:11:08.181Z,94.35
2018-11-13T08:12:11.720Z,93.73
2018-11-13T08:13:15.257Z,93.74
2018-11-13T08:14:18.254Z,93.88
2018-11-13T08:15:21.267Z,93.93
2018-11-13T08:16:25.508Z,93.92
2018-11-13T08:17:29.265Z,93.90
2018-11-13T08:18:34.104Z,93.90
2018-11-13T08:19:37.993Z,93.75
2018-11-13T08:20:41.480Z,93.71
2018-11-13T08:21:45.375Z,93.51
2018-11-13T08:22:48.655Z,93.50
2018-11-13T08:23:51.450Z,93.97
2018-11-13T08:24:55.669Z,93.77
2018-11-13T08:25:58.703Z,94.24
2018-11-13T08:27:02.558Z,94.02
2018-11-13T08:28:05.499Z,93.86
2018-11-13T08:29:09.135Z,93.65
2018-11-13T08:30:13.746Z,93.67
2018-11-13T08:31:16.690Z,93.78
2018-11-13T08:32:20.352Z,93.94
2018-11-13T08:33:23.711Z,92.67
2018-11-13T08:34:26.462Z,91.96
2018-11-13T08:35:29.185Z,92.02
2018-11-13T08:36:33.661Z,91.59
2018-11-13T08:37:43.753Z,92.21
2018-11-13T08:38:51.414Z,92.35
2018-11-13T08:39:55.415Z,92.31
2018-11-13T08:40:58.104Z,92.57
2018-11-13T08:42:01.432Z,92.33
2018-11-13T08:43:05.381Z,92.66
2018-11-13T08:44:09.742Z,93.05
2018-11-13T08:45:19.366Z,92.65
2018-11-13T08:46:22.603Z,92.91
2018-11-13T08:47:28.028Z,92.49
2018-11-13T08:48:30.930Z,91.90
2018-11-13T08:49:35.341Z,92.04
2018-11-13T08:50:38.180Z,92.43
2018-11-13T08:51:42.423Z,92.71
2018-11-13T08:52:45.902Z,92.31
2018-11-13T08:53:48.683Z,92.85
2018-11-13T08:54:53.133Z,92.46
2018-11-13T08:55:56.206Z,92.44
2018-11-13T08:56:59.823Z,91.62
2018-11-13T08:58:02.561Z,91.00
2018-11-13T08:59:05.712Z,91.75
2018-11-13T09:00:11.212Z,91.68
2018-11-13T09:01:15.577Z,91.25
2018-11-13T09:02:19.749Z,91.01
2018-11-13T09:03:25.919Z,90.96
2018-11-13T09:04:28.705Z,90.30
2018-11-13T09:05:32.425Z,89.89
2018-11-13T09:06:39.807Z,89.10
2018-11-13T09:07:43.797Z,88.67
2018-11-13T09:08:48.511Z,88.02
2018-11-13T09:09:52.600Z,88.80
2018-11-13T09:10:55.593Z,89.43
2018-11-13T09:11:59.963Z,88.17
2018-11-13T09:13:05.405Z,88.85
2018-11-13T09:14:10.557Z,87.88
2018-11-13T09:15:14.415Z,88.45
2018-11-13T09:16:18.226Z,88.52
2018-11-13T09:17:21.971Z,88.74
2018-11-13T09:18:25.581Z,89.25
2018-11-13T09:19:35.656Z,89.00
2018-11-13T09:20:41.361Z,88.49
2018-11-13T09:21:44.247Z,88.43
2018-11-13T09:22:47.807Z,88.02
2018-11-13T09:23:53.667Z,88.56
2018-11-13T09:25:00.510Z,88.58
2018-11-13T09:26:04.388Z,88.34
2018-11-13T09:27:07.392Z,88.97
2018-11-13T09:28:10.408Z,88.90
2018-11-13T09:29:16.941Z,88.18
2018-11-13T09:30:23.660Z,88.12
2018-11-13T09:31:27.578Z,88.11
2018-11-13T09:32:32.664Z,88.59
2018-11-13T09:33:36.738Z,88.00
2018-11-13T09:34:39.916Z,88.92
2018-11-13T09:35:42.726Z,88.62
2018-11-13T09:36:48.666Z,88.82
2018-11-13T09:37:51.456Z,88.41
2018-11-13T09:38:54.754Z,88.36
2018-11-13T09:39:58.535Z,88.61
2018-11-13T09:41:04.676Z,88.50
2018-11-13T09:42:08.292Z,88.33
2018-11-13T09:43:12.378Z,87.50
2018-11-13T09:44:15.525Z,88.31
2018-11-13T09:45:19.228Z,86.62
2018-11-13T09:46:22.063Z,86.40
2018-11-13T09:47:24.975Z,86.11
2018-11-13T09:48:27.939Z,84.88
2018-11-13T09:49:31.433Z,83.66
2018-11-13T09:50:34.822Z,84.35
2018-11-13T09:51:41.726Z,84.99
2018-11-13T09:52:47.052Z,85.47
2018-11-13T09:53:51.555Z,84.98
2018-11-13T09:54:55.094Z,85.04
2018-11-13T09:55:58.090Z,84.03
2018-11-13T09:57:01.220Z,83.65
2018-11-13T09:58:05.693Z,84.25
2018-11-13T09:59:08.589Z,83.33
2018-11-13T10:00:14.162Z,82.77
2018-11-13T10:01:17.556Z,83.19
2018-11-13T10:02:21.864Z,81.77
2018-11-13T10:03:24.735Z,81.33
2018-11-13T10:04:27.444Z,82.91
2018-11-13T10:05:29.691Z,83.04
2018-11-13T10:06:32.912Z,83.39
2018-11-13T10:07:36.426Z,83.33
2018-11-13T10:08:39.197Z,82.94
2018-11-13T10:09:42.585Z,83.16
2018-11-13T10:10:46.817Z,82.43
2018-11-13T10:11:53.139Z,83.95
2018-11-13T10:12:57.509Z,83.32
2018-11-13T10:15:23.464Z,83.46
2018-11-13T10:16:27.564Z,82.82
2018-11-13T10:17:31.652Z,83.50
2018-11-13T10:18:35.253Z,83.30
2018-11-13T10:19:39.268Z,83.27
2018-11-13T10:20:42.605Z,83.50
2018-11-13T10:21:45.540Z,83.67
2018-11-13T10:22:50.962Z,83.86
2018-11-13T10:23:54.503Z,84.55
2018-11-13T10:24:57.406Z,83.95
2018-11-13T10:26:02.357Z,84.91
2018-11-13T10:27:06.069Z,84.26
2018-11-13T10:28:09.580Z,84.85
2018-11-13T10:29:13.865Z,84.67
2018-11-13T10:30:20.352Z,84.85
2018-11-13T10:31:23.492Z,84.79
2018-11-13T10:32:27.502Z,84.56
2018-11-13T10:33:32.173Z,84.34
2018-11-13T10:34:35.342Z,84.39
2018-11-13T10:35:38.504Z,83.87
2018-11-13T10:36:41.622Z,82.85
2018-11-13T10:37:47.212Z,83.61
2018-11-13T10:38:51.684Z,82.73
2018-11-13T10:39:55.213Z,83.43
2018-11-13T10:41:00.092Z,83.45
2018-11-13T10:42:04.529Z,82.76
2018-11-13T10:43:10.637Z,82.26
2018-11-13T10:44:13.474Z,82.95
2018-11-13T10:45:20.824Z,83.15
2018-11-13T10:46:24.692Z,82.00
2018-11-13T10:47:28.630Z,79.99
2018-11-13T10:48:31.432Z,78.96
2018-11-13T10:49:37.592Z,76.95
2018-11-13T10:50:41.422Z,77.90
2018-11-13T10:51:45.731Z,79.09
2018-11-13T10:52:50.044Z,79.84
2018-11-13T10:53:53.687Z,78.48
2018-11-13T10:54:57.261Z,79.01
2018-11-13T10:56:00.913Z,79.54
2018-11-13T10:57:05.439Z,79.87
2018-11-13T10:58:10.350Z,79.99
2018-11-13T10:59:14.901Z,80.83
2018-11-13T11:00:24.338Z,79.52
2018-11-13T11:01:33.344Z,80.07
2018-11-13T11:02:42.053Z,80.22
2018-11-13T11:03:51.048Z,80.25
2018-11-13T11:04:54.862Z,80.31
2018-11-13T11:05:59.305Z,80.18
2018-11-13T11:07:05.270Z,79.03
2018-11-13T11:08:09.196Z,78.95
2018-11-13T11:09:12.024Z,79.06
2018-11-13T11:10:15.533Z,80.12
2018-11-13T11:11:20.549Z,79.28
2018-11-13T11:12:29.575Z,79.73
2018-11-13T11:13:33.761Z,78.05
2018-11-13T11:14:37.499Z,78.43
2018-11-13T11:15:42.104Z,77.99
2018-11-13T11:16:45.293Z,77.59
2018-11-13T11:17:49.631Z,77.78
2018-11-13T11:18:52.683Z,77.88
2018-11-13T11:19:56.328Z,77.74
2018-11-13T11:21:01.040Z,77.59
2018-11-13T11:22:04.078Z,77.48
2018-11-13T11:23:07.262Z,77.31
2018-11-13T11:24:14.663Z,75.58
2018-11-13T11:25:20.735Z,76.21
2018-11-13T11:26:25.967Z,76.54
2018-11-13T11:27:28.799Z,77.33
2018-11-13T11:28:31.545Z,75.21
2018-11-13T11:29:34.808Z,75.88
2018-11-13T11:43:04.476Z,76.08
2018-11-13T11:44:08.087Z,75.70
2018-11-13T11:45:12.008Z,75.56
2018-11-13T11:46:14.754Z,76.04
2018-11-13T11:47:20.565Z,75.71
2018-11-13T11:48:23.565Z,76.07
2018-11-13T11:49:27.073Z,76.40
2018-11-13T11:50:31.298Z,76.79
2018-11-13T11:51:35.108Z,76.71
2018-11-13T11:52:38.289Z,74.58
2018-11-13T11:53:41.448Z,74.24
2018-11-13T11:54:45.148Z,74.26
2018-11-13T11:55:49.253Z,74.96
2018-11-13T11:56:52.392Z,75.75
2018-11-13T11:57:55.166Z,76.02
2018-11-13T11:58:58.564Z,75.68
2018-11-13T12:00:03.584Z,76.17
2018-11-13T12:01:08.594Z,75.64
2018-11-13T12:02:11.515Z,76.48
2018-11-13T12:03:15.288Z,76.38
2018-11-13T12:04:20.295Z,76.82
2018-11-13T12:05:25.121Z,76.93
2018-11-13T12:06:28.773Z,76.88
2018-11-13T12:07:32.501Z,77.12
2018-11-13T12:08:36.620Z,76.93
2018-11-13T12:09:41.529Z,76.79
2018-11-13T12:10:44.842Z,76.38
2018-11-13T12:11:47.887Z,76.53
2018-11-13T12:12:51.489Z,76.22
2018-11-13T12:13:55.485Z,77.22
2018-11-13T12:14:58.295Z,77.52
2018-11-13T12:16:03.239Z,75.46
2018-11-13T12:17:08.590Z,75.89
2018-11-13T12:18:11.344Z,76.04
2018-11-13T12:19:14.458Z,76.81
2018-11-13T12:20:19.557Z,76.11
2018-11-13T12:21:24.024Z,76.21
2018-11-13T12:22:27.217Z,76.01
2018-11-13T12:23:30.803Z,76.67
2018-11-13T12:24:35.564Z,76.71
2018-11-13T12:25:38.471Z,76.47
2018-11-13T12:26:42.124Z,77.42
2018-11-13T12:27:49.363Z,76.89
2018-11-13T12:28:53.366Z,76.95
2018-11-13T12:29:57.657Z,76.64
2018-11-13T12:31:00.846Z,77.64
2018-11-13T12:32:05.901Z,77.57
2018-11-13T12:33:09.830Z,77.55
2018-11-13T12:34:13.353Z,77.79
2018-11-13T12:35:19.308Z,78.28
2018-11-13T12:36:23.248Z,78.45
2018-11-13T12:37:26.306Z,78.63
2018-11-13T12:38:29.866Z,77.50
2018-11-13T12:39:33.786Z,75.58
2018-11-13T12:40:38.567Z,75.04
2018-11-13T12:41:41.779Z,75.34
2018-11-13T12:42:46.462Z,74.56
2018-11-13T12:43:48.847Z,75.73
2018-11-13T12:44:51.999Z,75.73
2018-11-13T12:45:56.629Z,77.10
2018-11-13T12:47:01.306Z,76.82
2018-11-13T12:48:18.461Z,76.59
2018-11-13T12:49:27.478Z,76.23
2018-11-13T12:50:35.052Z,75.43
2018-11-13T12:51:42.799Z,76.00
2018-11-13T12:52:47.204Z,75.83
2018-11-13T12:53:51.302Z,74.32
2018-11-13T12:54:54.363Z,74.57
2018-11-13T12:55:57.531Z,73.29
2018-11-13T12:57:04.006Z,73.66
2018-11-13T12:58:08.417Z,73.95
2018-11-13T12:59:12.797Z,74.83
2018-11-13T13:00:18.051Z,75.42
2018-11-13T13:01:21.658Z,75.27
2018-11-13T13:02:24.732Z,76.00
2018-11-13T13:03:29.647Z,74.04
2018-11-13T13:04:32.676Z,74.37
2018-11-13T13:05:36.233Z,74.58
2018-11-13T13:06:39.468Z,72.56
2018-11-13T13:07:42.883Z,73.39
2018-11-13T13:08:47.306Z,73.11
2018-11-13T13:09:50.640Z,71.05
2018-11-13T13:10:54.134Z,71.35
2018-11-13T13:11:57.106Z,71.66
2018-11-13T13:13:00.305Z,72.15
2018-11-13T13:14:08.223Z,69.49
2018-11-13T13:15:12.444Z,70.28
2018-11-13T13:16:19.352Z,70.12
2018-11-13T13:17:23.836Z,71.29
2018-11-13T13:18:26.628Z,70.97
2018-11-13T13:19:30.996Z,69.27
2018-11-13T13:20:37.954Z,69.06
2018-11-13T13:21:40.870Z,69.72
2018-11-13T13:22:45.094Z,70.76
2018-11-13T13:23:52.535Z,70.97
2018-11-13T13:24:55.667Z,69.75
2018-11-13T13:26:03.658Z,68.98
2018-11-13T13:27:07.482Z,68.98
2018-11-13T13:28:11.614Z,69.04
2018-11-13T13:29:17.290Z,68.73
2018-11-13T13:30:22.438Z,69.05
2018-11-13T13:31:26.616Z,69.61
2018-11-13T13:32:29.600Z,70.65
2018-11-13T13:33:34.562Z,70.44
2018-11-13T13:34:39.532Z,69.03
2018-11-13T13:35:46.695Z,68.86
2018-11-13T13:36:50.059Z,69.50
2018-11-13T13:37:53.400Z,69.71
2018-11-13T13:38:56.568Z,68.52
2018-11-13T13:40:01.551Z,69.29
2018-11-13T13:41:06.092Z,69.47
2018-11-13T13:42:10.304Z,69.78
2018-11-13T13:43:14.403Z,66.44
2018-11-13T13:44:17.109Z,67.42
2018-11-13T13:45:21.451Z,67.28
2018-11-13T13:46:27.475Z,67.25
2018-11-13T13:47:31.299Z,67.58
2018-11-13T13:48:35.777Z,68.45
2018-11-13T13:49:39.502Z,66.73
2018-11-13T13:50:42.197Z,65.78
2018-11-13T13:51:44.914Z,66.28
2018-11-13T13:52:47.650Z,65.60
2018-11-13T13:53:50.823Z,65.34
2018-11-13T13:54:54.476Z,65.27
2018-11-13T13:55:57.390Z,66.35
2018-11-13T13:57:03.229Z,66.25
2018-11-13T13:58:07.916Z,66.25
2018-11-13T13:59:10.864Z,65.84
2018-11-13T14:00:15.936Z,66.24
2018-11-13T14:01:21.154Z,65.45
2018-11-13T14:02:26.241Z,64.91
2018-11-13T14:03:28.958Z,65.52
2018-11-13T14:04:31.634Z,66.42
2018-11-13T14:05:34.497Z,65.79
2018-11-13T14:06:38.107Z,65.63
2018-11-13T14:07:41.389Z,66.21